Time;durP1;ratioP1;P1;durP2;ratioP2;P2;SDS_P1;SDS_P2;PMS_P1;PMS_P2;Temp;Humidity;BMP_temperature;BMP_pressure;BME280_temperature;BME280_humidity;BME280_pressure;Samples;Min_cycle;Max_cycle;Signal;HPM_P1;HPM_P2
2023/04/26 00:02:11;;;;;;;11.32;2.83;;;4.70;99.90;;;;;;5067645;28;20056;-74
2023/04/26 00:04:40;;;;;;;10.68;3.17;;;4.60;99.90;;;;;;5039997;28;20414;-74
2023/04/26 00:07:06;;;;;;;10.82;2.83;;;4.60;99.90;;;;;;5038001;28;20683;-74
2023/04/26 00:09:32;;;;;;;13.73;3.25;;;4.70;99.90;;;;;;5053818;28;20051;-72
2023/04/26 00:11:58;;;;;;;11.68;2.72;;;4.80;99.90;;;;;;5057356;28;20598;-73
2023/04/26 00:14:24;;;;;;;11.88;2.75;;;4.60;99.90;;;;;;5050123;28;20095;-73
2023/04/26 00:16:50;;;;;;;12.43;3.10;;;4.50;99.90;;;;;;5048016;28;20057;-73
2023/04/26 00:19:17;;;;;;;11.07;3.22;;;4.50;99.90;;;;;;5064335;28;20482;-73
2023/04/26 00:21:42;;;;;;;13.05;2.80;;;4.50;99.90;;;;;;5063242;28;20162;-74
2023/04/26 00:24:08;;;;;;;11.35;3.20;;;4.60;99.90;;;;;;5047397;28;20652;-73
2023/04/26 00:26:34;;;;;;;12.43;3.30;;;4.40;99.90;;;;;;5053190;28;20120;-74
2023/04/26 00:29:02;;;;;;;15.70;3.70;;;4.40;99.90;;;;;;5053504;28;20127;-73
2023/04/26 00:31:28;;;;;;;15.93;3.80;;;4.40;99.90;;;;;;5043816;28;20053;-74
2023/04/26 00:33:54;;;;;;;10.88;3.45;;;4.40;99.90;;;;;;5039709;28;20041;-73
2023/04/26 00:36:19;;;;;;;14.07;3.38;;;4.50;99.90;;;;;;5042913;28;20049;-74
2023/04/26 00:38:45;;;;;;;12.50;3.60;;;4.50;99.90;;;;;;5049863;28;20033;-74
2023/04/26 00:41:11;;;;;;;11.93;2.92;;;4.50;99.90;;;;;;5049463;28;20139;-74
2023/04/26 00:43:38;;;;;;;11.23;3.00;;;4.50;99.90;;;;;;5033763;28;20083;-74
2023/04/26 00:46:04;;;;;;;12.85;3.05;;;4.40;99.90;;;;;;5051525;28;20399;-74
2023/04/26 00:48:30;;;;;;;11.55;3.00;;;4.30;99.90;;;;;;5042451;28;20041;-74
2023/04/26 00:50:56;;;;;;;11.77;2.58;;;4.50;99.90;;;;;;5051426;28;20099;-74
2023/04/26 00:53:22;;;;;;;11.13;2.78;;;4.30;99.90;;;;;;5031778;28;20036;-74
2023/04/26 00:55:50;;;;;;;10.82;2.55;;;4.40;99.90;;;;;;5052334;28;20059;-74
2023/04/26 00:58:17;;;;;;;10.57;2.50;;;4.30;99.90;;;;;;5050324;28;20087;-74
2023/04/26 01:00:43;;;;;;;9.13;2.22;;;4.20;99.90;;;;;;5035118;28;20032;-74
2023/04/26 01:03:09;;;;;;;11.35;2.90;;;4.20;99.90;;;;;;5052584;28;20483;-74
2023/04/26 01:05:36;;;;;;;10.32;2.60;;;4.20;99.90;;;;;;5051855;28;20474;-74
2023/04/26 01:08:03;;;;;;;9.38;2.55;;;4.50;99.90;;;;;;5050769;28;20037;-74
2023/04/26 01:10:31;;;;;;;13.65;2.60;;;4.20;99.90;;;;;;5065761;28;20112;-74
2023/04/26 01:12:57;;;;;;;11.35;2.80;;;4.60;99.90;;;;;;5046067;28;20219;-74
2023/04/26 01:15:23;;;;;;;10.73;2.80;;;4.40;99.90;;;;;;5057640;28;20112;-74
2023/04/26 01:17:49;;;;;;;11.60;2.50;;;4.20;99.90;;;;;;5049775;28;20506;-74
2023/04/26 01:20:15;;;;;;;12.90;3.03;;;4.20;99.90;;;;;;5058174;28;20052;-74
2023/04/26 01:22:41;;;;;;;10.52;2.70;;;4.90;99.90;;;;;;5052893;28;20248;-74
2023/04/26 01:25:10;;;;;;;10.65;2.67;;;4.20;99.90;;;;;;5055113;28;20119;-74
2023/04/26 01:27:37;;;;;;;10.57;3.33;;;4.20;99.90;;;;;;5055947;28;20051;-74
2023/04/26 01:30:03;;;;;;;14.05;3.45;;;4.20;99.90;;;;;;5056494;28;20115;-74
2023/04/26 01:32:29;;;;;;;12.93;3.35;;;4.20;99.90;;;;;;5032134;28;20193;-74
2023/04/26 01:34:55;;;;;;;12.63;3.08;;;4.40;99.90;;;;;;5047479;28;20233;-74
2023/04/26 01:37:21;;;;;;;12.20;2.70;;;4.50;99.90;;;;;;5054247;28;20072;-74
2023/04/26 01:39:46;;;;;;;10.13;3.00;;;4.30;99.90;;;;;;5032992;28;20032;-74
2023/04/26 01:42:12;;;;;;;9.63;3.40;;;4.30;99.90;;;;;;5051332;28;20043;-74
2023/04/26 01:44:38;;;;;;;14.30;3.42;;;4.30;99.90;;;;;;5056426;28;20120;-74
2023/04/26 01:47:05;;;;;;;10.75;3.30;;;4.60;99.90;;;;;;5052291;28;20098;-74
2023/04/26 01:49:31;;;;;;;13.77;3.25;;;4.70;99.90;;;;;;5056942;28;20028;-74
2023/04/26 01:51:57;;;;;;;12.80;3.20;;;4.40;99.90;;;;;;5056011;28;20048;-74
2023/04/26 01:54:23;;;;;;;13.43;3.97;;;4.40;99.90;;;;;;5042283;28;20112;-74
2023/04/26 01:56:49;;;;;;;11.15;3.80;;;4.40;99.90;;;;;;5044007;28;20139;-74
2023/04/26 01:59:14;;;;;;;10.88;3.50;;;4.40;99.90;;;;;;5034992;28;20068;-74
2023/04/26 02:01:42;;;;;;;11.18;4.13;;;4.80;99.90;;;;;;5027486;28;21268;-74
2023/04/26 02:04:08;;;;;;;12.50;3.90;;;5.00;99.90;;;;;;5076131;28;20040;-74
2023/04/26 02:06:33;;;;;;;11.50;3.90;;;2.60;99.90;;;;;;5056732;28;20051;-74
2023/04/26 02:08:59;;;;;;;16.10;4.30;;;4.40;99.90;;;;;;5049571;28;20063;-74
2023/04/26 02:11:25;;;;;;;11.05;3.88;;;5.50;99.90;;;;;;5059326;28;20067;-74
2023/04/26 02:13:52;;;;;;;11.95;3.63;;;4.50;99.90;;;;;;5055026;28;20123;-74
2023/04/26 02:16:18;;;;;;;12.90;4.07;;;4.50;99.90;;;;;;5041910;28;20083;-74
2023/04/26 02:18:44;;;;;;;12.00;3.70;;;4.50;99.90;;;;;;5067366;28;20093;-74
2023/04/26 02:21:12;;;;;;;12.23;3.30;;;4.50;99.90;;;;;;5035558;28;20066;-74
2023/04/26 02:23:38;;;;;;;10.93;3.25;;;4.50;99.90;;;;;;5069180;28;20044;-74
2023/04/26 02:26:04;;;;;;;18.40;3.53;;;5.10;99.90;;;;;;5063498;28;20055;-74
2023/04/26 02:28:30;;;;;;;12.60;3.47;;;4.50;99.90;;;;;;5053002;28;20505;-74
2023/04/26 02:30:56;;;;;;;11.45;3.35;;;4.50;99.90;;;;;;5051051;28;20032;-74
2023/04/26 02:33:22;;;;;;;13.00;4.30;;;5.50;99.90;;;;;;5054325;28;20120;-74
2023/04/26 02:35:47;;;;;;;12.73;3.88;;;4.50;99.90;;;;;;5033098;28;20131;-74
2023/04/26 02:38:13;;;;;;;12.85;3.83;;;4.50;99.90;;;;;;5046014;28;20498;-74
2023/04/26 02:40:39;;;;;;;11.32;3.35;;;4.60;99.90;;;;;;5058228;28;20052;-74
2023/04/26 02:43:04;;;;;;;10.52;3.25;;;4.50;99.90;;;;;;5052560;28;20059;-74
2023/04/26 02:45:30;;;;;;;13.55;3.08;;;4.50;99.90;;;;;;5058304;28;20055;-74
2023/04/26 02:47:56;;;;;;;14.07;3.65;;;4.50;99.90;;;;;;5057292;28;20036;-74
2023/04/26 02:50:22;;;;;;;10.27;3.08;;;4.50;99.90;;;;;;5057405;28;20623;-74
2023/04/26 02:52:48;;;;;;;10.45;3.00;;;4.70;99.90;;;;;;5054843;28;20044;-74
2023/04/26 02:55:14;;;;;;;10.68;2.85;;;4.50;99.90;;;;;;5050840;28;20062;-74
2023/04/26 02:57:39;;;;;;;10.73;3.13;;;4.50;99.90;;;;;;5054668;28;20076;-74
2023/04/26 03:00:06;;;;;;;11.40;2.92;;;4.40;99.90;;;;;;5028656;28;20064;-74
2023/04/26 03:02:32;;;;;;;12.48;3.40;;;4.40;99.90;;;;;;5056244;28;20075;-74
2023/04/26 03:04:58;;;;;;;13.45;3.13;;;4.40;99.90;;;;;;5056126;28;20541;-75
2023/04/26 03:07:24;;;;;;;9.60;4.07;;;4.40;99.90;;;;;;5058462;28;20044;-74
2023/04/26 03:09:49;;;;;;;13.55;4.97;;;5.50;99.90;;;;;;5040552;28;20089;-74
2023/04/26 03:12:15;;;;;;;12.15;4.80;;;4.40;99.90;;;;;;5054284;28;20486;-74
2023/04/26 03:14:41;;;;;;;14.00;4.00;;;5.00;99.90;;;;;;5052841;28;20043;-74
2023/04/26 03:17:07;;;;;;;15.05;4.20;;;4.30;99.90;;;;;;5041446;28;20044;-74
2023/04/26 03:19:33;;;;;;;12.52;3.50;;;4.90;99.90;;;;;;5043858;28;20048;-74
2023/04/26 03:21:58;;;;;;;11.57;3.80;;;4.30;99.90;;;;;;5035116;28;20059;-74
2023/04/26 03:24:25;;;;;;;10.68;3.42;;;4.30;99.90;;;;;;5041963;28;20127;-74
2023/04/26 03:26:51;;;;;;;12.10;2.97;;;4.30;99.90;;;;;;5050116;28;20113;-74
2023/04/26 03:29:17;;;;;;;9.68;2.95;;;4.30;99.90;;;;;;5044243;28;20087;-75
2023/04/26 03:31:43;;;;;;;10.55;3.13;;;4.50;99.90;;;;;;5050571;28;20048;-74
2023/04/26 03:34:08;;;;;;;11.60;3.53;;;4.30;99.90;;;;;;5023857;28;20405;-74
2023/04/26 03:36:34;;;;;;;10.68;2.95;;;4.30;99.90;;;;;;5042622;28;20508;-75
2023/04/26 03:39:00;;;;;;;10.25;2.67;;;4.60;99.90;;;;;;5050321;28;20044;-74
2023/04/26 03:41:26;;;;;;;8.48;2.72;;;4.40;99.90;;;;;;5043347;28;20064;-74
2023/04/26 03:43:51;;;;;;;9.07;2.50;;;4.30;99.90;;;;;;5055512;28;20035;-74
2023/04/26 03:46:17;;;;;;;10.82;2.55;;;4.30;99.90;;;;;;5045181;28;20047;-74
2023/04/26 03:48:43;;;;;;;11.15;2.83;;;4.30;99.90;;;;;;5037860;28;20301;-74
2023/04/26 03:51:08;;;;;;;7.78;2.60;;;4.20;99.90;;;;;;5051370;28;20045;-74
2023/04/26 03:53:34;;;;;;;11.27;2.35;;;4.10;99.90;;;;;;5043495;28;20132;-74
2023/04/26 03:56:00;;;;;;;12.25;2.90;;;4.10;99.90;;;;;;5038210;28;20045;-74
2023/04/26 03:58:26;;;;;;;6.78;2.20;;;4.80;99.90;;;;;;5052141;28;20459;-75
2023/04/26 04:00:56;;;;;;;10.25;2.60;;;4.10;99.90;;;;;;5056137;28;20044;-75
2023/04/26 04:03:21;;;;;;;8.45;2.63;;;4.70;99.90;;;;;;5057051;28;20033;-74
2023/04/26 04:05:47;;;;;;;11.95;3.13;;;4.00;99.90;;;;;;5046190;28;20041;-74
2023/04/26 04:08:13;;;;;;;10.57;2.67;;;4.00;99.90;;;;;;5041686;28;20045;-74
2023/04/26 04:10:38;;;;;;;12.70;2.67;;;4.00;99.90;;;;;;5035861;28;20067;-74
2023/04/26 04:13:04;;;;;;;10.98;2.65;;;4.30;99.90;;;;;;5060485;28;20516;-74
2023/04/26 04:15:30;;;;;;;11.43;2.40;;;4.10;99.90;;;;;;5039095;28;20037;-74
2023/04/26 04:17:56;;;;;;;8.18;2.35;;;4.10;99.90;;;;;;5043921;28;20127;-74
2023/04/26 04:20:21;;;;;;;14.00;3.25;;;4.80;99.90;;;;;;5027718;28;20113;-74
2023/04/26 04:22:47;;;;;;;9.85;2.13;;;4.70;99.90;;;;;;5048955;28;20442;-74
2023/04/26 04:25:13;;;;;;;6.70;2.13;;;4.30;99.90;;;;;;5059285;28;20045;-74
2023/04/26 04:27:41;;;;;;;9.27;2.38;;;4.40;99.90;;;;;;5053093;28;20472;-74
2023/04/26 04:30:08;;;;;;;9.70;2.50;;;4.40;99.90;;;;;;5052069;28;20398;-74
2023/04/26 04:32:38;;;;;;;8.50;2.53;;;4.40;99.90;;;;;;5033881;28;20151;-74
2023/04/26 04:35:04;;;;;;;7.53;2.08;;;4.40;99.90;;;;;;5046390;28;20049;-74
2023/04/26 04:37:33;;;;;;;7.68;2.20;;;4.50;99.90;;;;;;5036852;28;22123;-74
2023/04/26 04:40:00;;;;;;;4.60;1.80;;;4.50;99.90;;;;;;5049171;28;20512;-74
2023/04/26 04:42:27;;;;;;;6.10;1.90;;;4.60;99.90;;;;;;5054066;28;20098;-74
2023/04/26 04:44:53;;;;;;;7.88;2.20;;;4.50;99.90;;;;;;5047235;28;20052;-75
2023/04/26 04:47:19;;;;;;;8.73;2.30;;;4.50;99.90;;;;;;5043799;28;20047;-74
2023/04/26 04:49:44;;;;;;;6.82;2.20;;;4.60;99.90;;;;;;5059195;28;20043;-74
2023/04/26 04:52:10;;;;;;;6.60;2.10;;;4.60;99.90;;;;;;5040746;28;20060;-74
2023/04/26 04:54:36;;;;;;;7.28;2.55;;;4.70;99.90;;;;;;5055636;28;20121;-74
2023/04/26 04:57:02;;;;;;;9.27;2.65;;;4.80;99.90;;;;;;5034367;28;21240;-74
2023/04/26 04:59:28;;;;;;;9.00;2.22;;;4.80;99.90;;;;;;5047869;28;20047;-74
2023/04/26 05:01:54;;;;;;;10.25;2.70;;;5.00;99.90;;;;;;5032440;28;20029;-74
2023/04/26 05:04:20;;;;;;;8.80;2.72;;;5.00;99.90;;;;;;5057416;28;20040;-74
2023/04/26 05:06:46;;;;;;;8.65;2.33;;;5.00;99.90;;;;;;5063455;28;20529;-74
2023/04/26 05:09:11;;;;;;;8.55;2.22;;;5.10;99.90;;;;;;5035170;28;20694;-74
2023/04/26 05:11:37;;;;;;;10.82;2.50;;;5.10;99.90;;;;;;5062948;28;20040;-74
2023/04/26 05:14:03;;;;;;;9.60;2.50;;;5.80;99.90;;;;;;5046419;28;20582;-74
2023/04/26 05:16:29;;;;;;;9.27;2.70;;;5.10;99.90;;;;;;5053557;28;20135;-74
2023/04/26 05:18:54;;;;;;;9.20;2.67;;;6.60;99.90;;;;;;5040875;28;20072;-74
2023/04/26 05:21:21;;;;;;;8.32;2.50;;;5.20;99.90;;;;;;5042598;28;20915;-74
2023/04/26 05:23:47;;;;;;;12.85;2.60;;;5.20;99.90;;;;;;5052254;28;20036;-74
2023/04/26 05:26:15;;;;;;;8.02;2.13;;;5.20;99.90;;;;;;5042312;28;20566;-74
2023/04/26 05:28:41;;;;;;;7.30;2.45;;;5.30;99.90;;;;;;5049106;28;20037;-75
2023/04/26 05:31:08;;;;;;;7.43;2.50;;;5.40;99.90;;;;;;5053499;28;20115;-74
2023/04/26 05:33:34;;;;;;;11.82;2.60;;;5.50;99.90;;;;;;5041803;28;20098;-74
2023/04/26 05:36:00;;;;;;;12.10;3.10;;;5.40;99.90;;;;;;5043914;28;20048;-74
2023/04/26 05:38:26;;;;;;;9.00;2.58;;;5.40;99.90;;;;;;5053891;28;20374;-74
2023/04/26 05:40:52;;;;;;;9.23;2.60;;;5.30;99.90;;;;;;5060194;28;20501;-74
2023/04/26 05:43:18;;;;;;;10.80;2.90;;;5.30;99.90;;;;;;5059921;28;20110;-74
2023/04/26 05:45:54;;;;;;;12.40;3.28;;;5.50;99.90;;;;;;5072954;28;20100;-74
2023/04/26 05:48:21;;;;;;;8.88;3.38;;;5.30;99.90;;;;;;5073127;28;20502;-75
2023/04/26 05:50:47;;;;;;;8.40;2.45;;;5.30;99.90;;;;;;5053477;28;20040;-74
2023/04/26 05:53:13;;;;;;;8.82;2.85;;;5.40;99.90;;;;;;5068154;28;20041;-74
2023/04/26 05:55:40;;;;;;;7.90;2.60;;;5.50;99.90;;;;;;5064629;28;20512;-74
2023/04/26 05:58:07;;;;;;;9.20;2.40;;;5.60;99.90;;;;;;5055988;28;20088;-75
2023/04/26 06:00:33;;;;;;;8.77;2.47;;;5.70;99.90;;;;;;5072670;28;20539;-75
2023/04/26 06:02:59;;;;;;;9.90;2.85;;;5.90;99.90;;;;;;5034184;28;20044;-74
2023/04/26 06:05:24;;;;;;;9.15;2.60;;;6.00;99.90;;;;;;5080794;28;20048;-75
2023/04/26 06:07:51;;;;;;;11.95;3.50;;;6.20;99.90;;;;;;5060269;28;20509;-75
2023/04/26 06:10:16;;;;;;;9.80;2.60;;;6.50;99.90;;;;;;5047706;28;20047;-74
2023/04/26 06:12:43;;;;;;;9.77;2.90;;;6.30;99.90;;;;;;5061747;28;20044;-74
2023/04/26 06:15:10;;;;;;;11.57;2.95;;;6.30;99.90;;;;;;5067224;28;20123;-74
2023/04/26 06:17:35;;;;;;;7.97;2.63;;;6.10;99.90;;;;;;5054236;28;20052;-74
2023/04/26 06:20:02;;;;;;;8.75;2.78;;;6.10;99.90;;;;;;5072186;28;20044;-75
2023/04/26 06:22:28;;;;;;;9.05;2.55;;;6.10;99.90;;;;;;5052453;28;20082;-75
2023/04/26 06:24:54;;;;;;;10.40;2.70;;;6.10;99.90;;;;;;5071984;28;20516;-75
2023/04/26 06:27:20;;;;;;;10.82;2.75;;;6.10;99.90;;;;;;5036770;28;20123;-75
2023/04/26 06:29:45;;;;;;;8.43;2.45;;;6.60;99.90;;;;;;5042887;28;20466;-75
2023/04/26 06:32:11;;;;;;;10.32;2.80;;;6.20;99.90;;;;;;5040233;28;20121;-75
2023/04/26 06:34:37;;;;;;;10.55;2.70;;;6.30;99.90;;;;;;5063938;28;20044;-75
2023/04/26 06:37:04;;;;;;;9.55;2.60;;;6.60;99.90;;;;;;5067957;28;20107;-75
2023/04/26 06:39:30;;;;;;;7.28;2.50;;;6.40;99.90;;;;;;5061033;28;20071;-75
2023/04/26 06:41:55;;;;;;;10.85;2.50;;;6.60;99.90;;;;;;5039530;28;20426;-75
2023/04/26 06:44:21;;;;;;;9.80;2.70;;;6.70;99.90;;;;;;5061010;28;20036;-75
2023/04/26 06:46:48;;;;;;;10.48;2.80;;;6.80;99.90;;;;;;5057063;28;20123;-75
2023/04/26 06:49:14;;;;;;;9.38;2.42;;;7.00;99.90;;;;;;5057066;28;20044;-75
2023/04/26 06:51:40;;;;;;;7.80;2.50;;;7.20;99.90;;;;;;5053972;28;20032;-75
2023/04/26 06:54:05;;;;;;;10.10;3.00;;;7.40;99.90;;;;;;5062461;28;20032;-75
2023/04/26 06:56:31;;;;;;;9.20;2.40;;;7.60;99.90;;;;;;5042403;28;20118;-75
2023/04/26 06:59:02;;;;;;;10.73;2.50;;;7.70;99.90;;;;;;5065599;28;20113;-75
2023/04/26 07:01:32;;;;;;;8.38;2.50;;;7.70;99.90;;;;;;5031637;28;20461;-75
2023/04/26 07:03:58;;;;;;;10.60;2.70;;;7.80;99.90;;;;;;5052676;28;20043;-75
2023/04/26 07:06:25;;;;;;;7.28;2.53;;;7.80;99.90;;;;;;5061320;28;20378;-75
2023/04/26 07:08:51;;;;;;;11.02;2.47;;;7.80;99.90;;;;;;5064320;28;20075;-75
2023/04/26 07:11:16;;;;;;;10.02;2.50;;;7.80;99.90;;;;;;5071401;28;20075;-75
2023/04/26 07:13:42;;;;;;;11.02;2.88;;;7.80;99.90;;;;;;5065259;28;20062;-75
2023/04/26 07:16:09;;;;;;;12.55;2.30;;;7.90;99.90;;;;;;5051677;28;20177;-75
2023/04/26 07:18:35;;;;;;;7.68;2.53;;;8.00;99.90;;;;;;5044090;28;20071;-75
2023/04/26 07:21:01;;;;;;;8.15;2.20;;;8.00;99.90;;;;;;5026285;28;20444;-75
2023/04/26 07:23:28;;;;;;;7.75;2.17;;;8.00;99.90;;;;;;5071390;28;20039;-75
2023/04/26 07:25:54;;;;;;;10.55;3.05;;;8.10;99.90;;;;;;5053986;28;20044;-75
2023/04/26 07:28:20;;;;;;;9.93;2.50;;;8.20;99.90;;;;;;5059505;28;20043;-75
2023/04/26 07:30:45;;;;;;;8.65;2.38;;;8.30;99.90;;;;;;5046040;28;20036;-75
2023/04/26 07:33:11;;;;;;;8.73;2.28;;;8.50;99.90;;;;;;5038614;28;20043;-75
2023/04/26 07:35:37;;;;;;;6.55;1.90;;;8.60;99.90;;;;;;5036820;28;20123;-75
2023/04/26 07:38:03;;;;;;;9.18;2.30;;;8.60;99.90;;;;;;5024865;28;20036;-75
2023/04/26 07:40:30;;;;;;;10.82;2.67;;;8.40;99.90;;;;;;5048526;28;20117;-75
2023/04/26 07:42:55;;;;;;;11.75;2.95;;;8.60;99.90;;;;;;5045084;28;20029;-75
2023/04/26 07:45:21;;;;;;;8.40;2.90;;;8.70;99.90;;;;;;5046128;28;20475;-75
2023/04/26 07:47:47;;;;;;;9.77;2.40;;;8.90;99.90;;;;;;5051516;28;20079;-75
2023/04/26 07:50:13;;;;;;;6.55;2.35;;;9.00;99.90;;;;;;5045332;28;20070;-75
2023/04/26 07:52:39;;;;;;;9.38;2.33;;;9.10;99.90;;;;;;5059551;28;20081;-75
2023/04/26 07:55:05;;;;;;;10.73;2.53;;;9.30;99.90;;;;;;5064822;28;20046;-75
2023/04/26 07:57:31;;;;;;;8.77;2.35;;;9.40;99.90;;;;;;5041410;28;20032;-75
2023/04/26 07:59:57;;;;;;;9.10;2.30;;;9.50;99.90;;;;;;5072799;28;20085;-75
2023/04/26 08:02:23;;;;;;;9.90;2.60;;;9.60;99.90;;;;;;5072510;28;20512;-75
2023/04/26 08:04:51;;;;;;;10.15;2.72;;;9.70;99.90;;;;;;5056506;28;20512;-76
2023/04/26 08:07:18;;;;;;;8.73;2.53;;;9.80;99.90;;;;;;5054237;28;20101;-75
2023/04/26 08:09:44;;;;;;;9.35;2.58;;;9.70;99.90;;;;;;5065219;28;20146;-75
2023/04/26 08:12:13;;;;;;;8.77;2.35;;;9.70;99.90;;;;;;5073517;28;20036;-75
2023/04/26 08:14:39;;;;;;;10.27;2.80;;;9.60;99.90;;;;;;5047387;28;20150;-75
2023/04/26 08:17:06;;;;;;;9.27;2.35;;;9.30;99.90;;;;;;5043083;28;20131;-75
2023/04/26 08:19:33;;;;;;;9.18;2.50;;;9.10;99.90;;;;;;5052770;28;20098;-75
2023/04/26 08:21:59;;;;;;;8.60;2.40;;;8.90;99.90;;;;;;5075595;28;20048;-75
2023/04/26 08:24:24;;;;;;;8.88;2.25;;;8.90;99.90;;;;;;5058981;28;20097;-75
2023/04/26 08:26:50;;;;;;;11.20;2.65;;;9.00;99.90;;;;;;5067160;28;20506;-75
2023/04/26 08:29:17;;;;;;;10.65;2.53;;;9.00;99.90;;;;;;5040146;28;20033;-75
2023/04/26 08:31:43;;;;;;;8.60;2.25;;;9.00;99.90;;;;;;5067347;28;20116;-75
2023/04/26 08:34:10;;;;;;;7.60;2.65;;;8.90;99.90;;;;;;5036161;28;20489;-75
2023/04/26 08:36:42;;;;;;;8.73;2.40;;;8.60;99.90;;;;;;5060312;28;20152;-75
2023/04/26 08:39:08;;;;;;;8.65;2.10;;;8.60;99.90;;;;;;5071049;28;20048;-75
2023/04/26 08:41:43;;;;;;;10.13;2.45;;;8.60;99.90;;;;;;5043846;28;20139;-74
2023/04/26 08:44:08;;;;;;;9.93;2.75;;;8.70;99.90;;;;;;5067630;28;20044;-74
2023/04/26 08:47:05;;;;;;;9.15;2.33;;;8.80;99.90;;;;;;5052647;28;20148;-75
2023/04/26 08:49:40;;;;;;;11.18;2.65;;;9.10;99.90;;;;;;5062385;28;20045;-74
2023/04/26 08:52:12;;;;;;;10.32;2.50;;;9.00;99.90;;;;;;5066311;28;20064;-75
2023/04/26 08:54:39;;;;;;;10.05;2.17;;;8.80;99.90;;;;;;5070376;28;20048;-75
2023/04/26 08:57:08;;;;;;;11.07;2.70;;;8.60;99.90;;;;;;5043710;28;20037;-75
2023/04/26 08:59:38;;;;;;;8.68;1.85;;;8.20;99.90;;;;;;5060055;28;20033;-75
2023/04/26 09:02:05;;;;;;;8.93;2.00;;;8.10;99.90;;;;;;5047897;28;20040;-75
2023/04/26 09:04:31;;;;;;;11.07;2.20;;;8.00;99.90;;;;;;5062442;28;20044;-74
2023/04/26 09:07:01;;;;;;;9.10;2.30;;;7.80;99.90;;;;;;5072120;28;20082;-75
2023/04/26 09:09:30;;;;;;;7.25;2.10;;;7.70;99.90;;;;;;5044493;28;20043;-74
2023/04/26 09:11:58;;;;;;;10.57;2.25;;;7.70;99.90;;;;;;5029364;28;20036;-74
2023/04/26 09:14:25;;;;;;;9.30;2.13;;;7.60;99.90;;;;;;5062077;28;20506;-75
2023/04/26 09:16:51;;;;;;;8.50;2.20;;;7.60;99.90;;;;;;5053748;28;20462;-75
2023/04/26 09:19:33;;;;;;;12.23;2.50;;;7.60;99.90;;;;;;5070032;28;20064;-75
2023/04/26 09:21:58;;;;;;;9.02;2.25;;;7.60;99.90;;;;;;5054181;28;20412;-75
2023/04/26 09:24:25;;;;;;;9.95;2.20;;;7.60;99.90;;;;;;5061589;28;20037;-75
2023/04/26 09:27:03;;;;;;;8.35;2.20;;;7.80;99.90;;;;;;5043701;28;20076;-75
2023/04/26 09:29:28;;;;;;;12.60;2.53;;;8.00;99.90;;;;;;5048148;28;20062;-75
2023/04/26 09:31:54;;;;;;;10.25;2.10;;;8.10;99.90;;;;;;5080464;28;20033;-76
2023/04/26 09:34:20;;;;;;;9.35;2.65;;;8.20;99.90;;;;;;5038964;28;20035;-75
2023/04/26 09:36:51;;;;;;;8.88;2.50;;;8.20;99.90;;;;;;5063251;28;20067;-75
2023/04/26 09:39:38;;;;;;;10.93;2.13;;;8.20;99.90;;;;;;5059761;28;20486;-75
2023/04/26 09:42:05;;;;;;;10.98;1.92;;;8.30;99.90;;;;;;5052848;28;20090;-75
2023/04/26 09:44:32;;;;;;;8.60;2.10;;;8.30;99.90;;;;;;5058546;28;20033;-75
2023/04/26 09:46:58;;;;;;;9.20;2.22;;;8.30;99.90;;;;;;5063961;28;20040;-75
2023/04/26 09:49:30;;;;;;;10.63;2.30;;;8.40;99.90;;;;;;5060059;28;20041;-75
2023/04/26 09:52:04;;;;;;;10.20;2.55;;;8.60;99.90;;;;;;5068493;28;20037;-75
2023/04/26 09:54:45;;;;;;;9.60;2.20;;;8.70;99.90;;;;;;5055417;28;20037;-75
2023/04/26 09:57:12;;;;;;;8.20;2.60;;;8.70;99.90;;;;;;5057853;28;20036;-75
2023/04/26 09:59:46;;;;;;;8.95;2.63;;;8.80;99.90;;;;;;5054250;28;20041;-75
2023/04/26 10:02:17;;;;;;;12.05;2.80;;;8.90;99.90;;;;;;5053513;28;20037;-75
2023/04/26 10:04:48;;;;;;;9.80;2.63;;;9.00;99.90;;;;;;5066151;28;20086;-75
2023/04/26 10:07:16;;;;;;;12.48;2.90;;;9.10;99.90;;;;;;5040587;28;20173;-75
2023/04/26 10:09:42;;;;;;;10.52;2.58;;;9.20;99.90;;;;;;5048112;28;20040;-75
2023/04/26 10:12:10;;;;;;;11.15;2.90;;;9.30;99.90;;;;;;5041214;28;20051;-75
2023/04/26 10:14:36;;;;;;;11.85;2.65;;;9.50;99.90;;;;;;5049958;28;20040;-75
2023/04/26 10:17:03;;;;;;;13.63;3.15;;;9.60;99.90;;;;;;5060976;28;20032;-75
2023/04/26 10:19:31;;;;;;;10.80;2.63;;;9.80;99.90;;;;;;5068505;28;20092;-75
2023/04/26 10:22:05;;;;;;;10.10;2.40;;;10.00;99.90;;;;;;5039978;28;20041;-75
2023/04/26 10:24:32;;;;;;;11.15;2.50;;;10.20;99.90;;;;;;5060358;28;20263;-75
2023/04/26 10:27:00;;;;;;;8.48;2.58;;;10.40;99.90;;;;;;5065909;28;20354;-75
2023/04/26 10:29:55;;;;;;;9.57;2.42;;;10.30;99.90;;;;;;5057322;28;20044;-75
2023/04/26 10:32:22;;;;;;;7.68;2.10;;;10.20;99.90;;;;;;5036150;28;20037;-76
2023/04/26 10:35:13;;;;;;;7.38;1.80;;;10.00;99.90;;;;;;5079605;28;20127;-75
2023/04/26 10:38:07;;;;;;;7.50;1.90;;;9.90;99.90;;;;;;5061658;28;20040;-75
2023/04/26 10:40:35;;;;;;;6.50;1.92;;;9.80;99.90;;;;;;5059941;28;20037;-76
2023/04/26 10:43:10;;;;;;;7.00;1.80;;;9.80;99.90;;;;;;5054482;28;20143;-75
2023/04/26 10:45:37;;;;;;;9.15;2.08;;;10.00;99.90;;;;;;5057507;28;20075;-75
2023/04/26 10:48:27;;;;;;;9.30;2.35;;;10.10;99.90;;;;;;5027885;28;20529;-75
2023/04/26 10:51:06;;;;;;;10.50;2.60;;;10.10;99.90;;;;;;5057132;28;20045;-75
2023/04/26 10:53:52;;;;;;;11.73;2.42;;;10.10;99.90;;;;;;5046331;28;20544;-75
2023/04/26 10:56:27;;;;;;;9.55;2.75;;;10.10;99.90;;;;;;5064735;28;20052;-75
2023/04/26 10:59:13;;;;;;;8.48;2.08;;;10.00;99.90;;;;;;5055612;28;20037;-75
2023/04/26 11:01:39;;;;;;;7.28;1.88;;;9.80;99.90;;;;;;5051729;28;20040;-75
2023/04/26 11:04:09;;;;;;;9.43;1.83;;;9.50;99.90;;;;;;5047369;28;20106;-75
2023/04/26 11:06:52;;;;;;;7.75;2.13;;;9.00;99.90;;;;;;5084905;28;20500;-75
2023/04/26 11:09:41;;;;;;;8.40;2.05;;;8.70;99.90;;;;;;5058604;28;20041;-75
2023/04/26 11:12:14;;;;;;;11.57;2.38;;;8.30;99.90;;;;;;5052316;28;20048;-74
2023/04/26 11:14:41;;;;;;;8.77;2.00;;;8.10;99.90;;;;;;5058620;28;20040;-75
2023/04/26 11:17:08;;;;;;;7.18;1.80;;;7.90;99.90;;;;;;5068445;28;20041;-75
2023/04/26 11:19:34;;;;;;;9.55;2.10;;;7.80;99.90;;;;;;5063851;28;20052;-75
2023/04/26 11:22:01;;;;;;;7.82;1.70;;;7.80;99.90;;;;;;5068433;28;20467;-75
2023/04/26 11:24:31;;;;;;;6.00;1.60;;;7.80;99.90;;;;;;5059741;28;20041;-74
2023/04/26 11:26:58;;;;;;;6.72;2.00;;;7.90;99.90;;;;;;5050025;28;20032;-74
2023/04/26 11:29:24;;;;;;;5.47;1.70;;;8.00;99.90;;;;;;5040204;28;20032;-75
2023/04/26 11:31:55;;;;;;;9.27;1.80;;;8.00;99.90;;;;;;5052383;28;20491;-75
2023/04/26 11:34:34;;;;;;;8.77;2.10;;;8.00;99.90;;;;;;5059633;28;20063;-75
2023/04/26 11:37:06;;;;;;;11.98;1.90;;;8.20;99.90;;;;;;5041091;28;20084;-75
2023/04/26 11:39:33;;;;;;;7.32;1.90;;;8.30;99.90;;;;;;5045219;28;20112;-74
2023/04/26 11:42:06;;;;;;;8.07;2.40;;;8.50;99.90;;;;;;5048579;28;20587;-74
2023/04/26 11:44:32;;;;;;;8.60;2.00;;;8.70;99.90;;;;;;5029002;28;20049;-75
2023/04/26 11:47:02;;;;;;;7.60;2.35;;;8.80;99.90;;;;;;5044827;28;20033;-75
2023/04/26 11:49:32;;;;;;;7.10;1.80;;;8.90;99.90;;;;;;5064729;28;20129;-75
2023/04/26 11:51:58;;;;;;;6.10;2.00;;;9.10;99.90;;;;;;5039157;28;20041;-74
2023/04/26 11:54:34;;;;;;;6.65;1.70;;;9.30;99.90;;;;;;5064259;28;20043;-74
2023/04/26 11:57:11;;;;;;;6.63;1.60;;;9.30;99.90;;;;;;5056027;28;20071;-75
2023/04/26 11:59:37;;;;;;;7.05;1.85;;;9.30;99.90;;;;;;5060552;28;20044;-75
2023/04/26 12:02:06;;;;;;;5.65;1.60;;;9.10;99.90;;;;;;5059066;28;20033;-75
2023/04/26 12:04:32;;;;;;;9.57;2.10;;;9.10;99.90;;;;;;5064642;28;20044;-75
2023/04/26 12:07:03;;;;;;;7.95;1.92;;;9.00;99.90;;;;;;5033957;28;20055;-74
2023/04/26 12:09:30;;;;;;;5.45;1.77;;;9.00;99.90;;;;;;5047085;28;20052;-74
2023/04/26 12:12:07;;;;;;;6.50;2.10;;;8.90;99.90;;;;;;5041558;28;21357;-74
2023/04/26 12:14:37;;;;;;;9.23;2.10;;;8.80;99.90;;;;;;5066029;28;20494;-74
2023/04/26 12:17:05;;;;;;;6.35;1.90;;;8.70;99.90;;;;;;5061592;28;20037;-74
2023/04/26 12:19:35;;;;;;;8.18;1.85;;;8.70;99.90;;;;;;5047472;28;20093;-74
2023/04/26 12:22:01;;;;;;;7.50;1.90;;;8.80;99.90;;;;;;5076433;28;20048;-75
2023/04/26 12:24:32;;;;;;;6.85;2.10;;;8.70;99.90;;;;;;5036059;28;20051;-75
2023/04/26 12:26:58;;;;;;;8.80;2.17;;;8.70;99.90;;;;;;5050686;28;20040;-75
2023/04/26 12:29:24;;;;;;;11.68;2.30;;;8.70;99.90;;;;;;5039680;28;20171;-75
2023/04/26 12:31:49;;;;;;;9.23;2.17;;;8.70;99.90;;;;;;5042368;28;20044;-75
2023/04/26 12:34:15;;;;;;;6.63;2.05;;;8.70;99.90;;;;;;5041315;28;20590;-75
2023/04/26 12:36:44;;;;;;;8.50;1.92;;;8.70;99.90;;;;;;5042571;28;20682;-75
2023/04/26 12:39:12;;;;;;;6.47;2.00;;;8.70;99.90;;;;;;5050519;28;20041;-74
2023/04/26 12:41:39;;;;;;;11.50;2.10;;;8.90;99.90;;;;;;5058103;28;20446;-75
2023/04/26 12:44:06;;;;;;;9.27;1.98;;;9.10;99.90;;;;;;5059669;28;20047;-74
2023/04/26 12:46:32;;;;;;;9.23;2.30;;;9.10;99.90;;;;;;5029339;28;20410;-75
2023/04/26 12:48:58;;;;;;;10.02;2.20;;;9.20;99.90;;;;;;5066897;28;20050;-75
2023/04/26 12:51:23;;;;;;;8.93;2.05;;;9.50;99.90;;;;;;5053896;28;20505;-75
2023/04/26 12:53:49;;;;;;;9.52;2.17;;;9.60;99.90;;;;;;5063402;28;20041;-75